createdAt,value
2019-01-10T00:01:51.459Z,1.40
2019-01-10T00:04:19.269Z,1.93
2019-01-10T00:06:47.719Z,1.50
2019-01-10T00:09:15.164Z,1.50
2019-01-10T00:11:42.292Z,2.10
2019-01-10T00:14:09.721Z,1.20
2019-01-10T00:16:37.448Z,1.50
2019-01-10T00:19:04.688Z,1.43
2019-01-10T00:21:32.021Z,1.40
2019-01-10T00:23:59.874Z,1.30
2019-01-10T00:26:27.510Z,1.63
2019-01-10T00:28:54.984Z,1.60
2019-01-10T00:31:23.003Z,1.87
2019-01-10T00:33:50.557Z,1.77
2019-01-10T00:36:19.861Z,1.60
2019-01-10T00:38:48.986Z,1.70
2019-01-10T00:41:16.156Z,1.90
2019-01-10T00:43:43.947Z,1.47
2019-01-10T00:46:12.092Z,2.00
2019-01-10T00:48:40.738Z,1.70
2019-01-10T00:51:08.199Z,2.53
2019-01-10T00:53:35.604Z,1.80
2019-01-10T00:56:03.731Z,1.33
2019-01-10T00:58:31.784Z,2.00
2019-01-10T01:00:58.860Z,1.60
2019-01-10T01:03:26.879Z,1.83
2019-01-10T01:05:55.797Z,1.40
2019-01-10T01:08:22.899Z,3.57
2019-01-10T01:10:50.306Z,2.83
2019-01-10T01:13:17.998Z,2.80
2019-01-10T01:15:46.387Z,2.23
2019-01-10T01:18:14.213Z,2.93
2019-01-10T01:20:41.885Z,1.80
2019-01-10T01:23:10.099Z,1.60
2019-01-10T01:25:37.389Z,2.00
2019-01-10T01:28:05.258Z,1.87
2019-01-10T01:30:33.016Z,1.93
2019-01-10T01:33:00.111Z,2.10
2019-01-10T01:35:27.123Z,1.83
2019-01-10T01:37:54.975Z,1.80
2019-01-10T01:40:22.392Z,1.60
2019-01-10T01:42:51.704Z,1.87
2019-01-10T01:45:19.791Z,2.07
2019-01-10T01:47:47.215Z,1.97
2019-01-10T01:50:17.479Z,1.80
2019-01-10T01:52:46.299Z,2.20
2019-01-10T01:55:13.507Z,1.67
2019-01-10T01:57:41.923Z,1.83
2019-01-10T02:00:12.406Z,1.90
2019-01-10T02:02:39.546Z,1.90
2019-01-10T02:05:08.527Z,1.90
2019-01-10T02:07:36.179Z,1.67
2019-01-10T02:10:05.872Z,1.90
2019-01-10T02:12:33.216Z,1.80
2019-01-10T02:15:00.869Z,1.53
2019-01-10T02:17:28.569Z,1.77
2019-01-10T02:19:56.147Z,1.80
2019-01-10T02:22:24.001Z,1.60
2019-01-10T02:24:51.699Z,1.63
2019-01-10T02:27:19.295Z,2.00
2019-01-10T02:29:46.647Z,1.53
2019-01-10T02:32:13.801Z,1.67
2019-01-10T02:34:41.314Z,1.67
2019-01-10T02:37:08.938Z,1.87
2019-01-10T02:39:36.292Z,1.40
2019-01-10T02:42:03.825Z,1.70
2019-01-10T02:44:31.004Z,1.70
2019-01-10T02:46:58.732Z,1.57
2019-01-10T02:49:27.230Z,1.50
2019-01-10T02:51:55.587Z,1.53
2019-01-10T02:54:22.821Z,1.23
2019-01-10T02:56:50.363Z,1.30
2019-01-10T02:59:18.206Z,1.93
2019-01-10T03:01:46.040Z,1.83
2019-01-10T03:04:13.451Z,1.40
2019-01-10T03:06:40.840Z,1.80
2019-01-10T03:09:08.771Z,1.57
2019-01-10T03:11:36.296Z,1.57
2019-01-10T03:14:04.345Z,1.27
2019-01-10T03:16:32.375Z,1.40
2019-01-10T03:19:00.185Z,1.67
2019-01-10T03:21:27.704Z,1.73
2019-01-10T03:23:55.353Z,1.83
2019-01-10T03:26:22.616Z,1.60
2019-01-10T03:28:49.652Z,1.40
2019-01-10T03:31:17.684Z,1.93
2019-01-10T03:33:45.902Z,2.00
2019-01-10T03:36:12.950Z,1.33
2019-01-10T03:38:40.900Z,1.50
2019-01-10T03:41:08.329Z,1.50
2019-01-10T03:43:35.494Z,1.70
2019-01-10T03:46:03.299Z,1.90
2019-01-10T03:48:32.080Z,1.90
2019-01-10T03:50:59.624Z,1.30
2019-01-10T03:53:28.264Z,1.70
2019-01-10T03:55:55.331Z,1.47
2019-01-10T03:58:23.482Z,1.80
2019-01-10T04:00:51.352Z,1.50
2019-01-10T04:03:19.321Z,1.60
2019-01-10T04:05:46.948Z,1.77
2019-01-10T04:08:14.687Z,2.27
2019-01-10T04:10:42.623Z,2.00
2019-01-10T04:13:10.191Z,2.40
2019-01-10T04:15:37.833Z,2.60
2019-01-10T04:18:04.975Z,2.70
2019-01-10T04:20:32.617Z,3.87
2019-01-10T04:23:00.151Z,4.87
2019-01-10T04:25:27.560Z,3.77
2019-01-10T04:27:55.074Z,2.40
2019-01-10T04:30:23.199Z,4.77
2019-01-10T04:32:50.658Z,3.90
2019-01-10T04:35:18.186Z,2.60
2019-01-10T04:37:46.064Z,1.67
2019-01-10T04:40:15.722Z,2.03
2019-01-10T04:42:43.197Z,2.00
2019-01-10T04:45:10.620Z,1.33
2019-01-10T04:47:38.575Z,2.10
2019-01-10T04:50:07.172Z,1.90
2019-01-10T04:52:34.317Z,1.97
2019-01-10T04:55:01.731Z,1.60
2019-01-10T04:57:28.645Z,1.40
2019-01-10T04:59:56.292Z,2.20
2019-01-10T05:02:23.587Z,2.30
2019-01-10T05:04:51.255Z,1.80
2019-01-10T05:07:20.165Z,1.93
2019-01-10T05:09:47.601Z,1.43
2019-01-10T05:12:16.125Z,1.40
2019-01-10T05:14:43.154Z,1.80
2019-01-10T05:17:10.744Z,1.80
2019-01-10T05:19:38.443Z,2.20
2019-01-10T05:22:06.350Z,2.27
2019-01-10T05:24:34.011Z,1.50
2019-01-10T05:27:01.783Z,1.57
2019-01-10T05:29:29.392Z,2.10
2019-01-10T05:31:56.939Z,1.60
2019-01-10T05:34:25.026Z,1.93
2019-01-10T05:36:52.484Z,1.60
2019-01-10T05:39:21.565Z,1.47
2019-01-10T05:41:48.865Z,1.47
2019-01-10T05:44:16.048Z,1.60
2019-01-10T05:46:48.613Z,1.50
2019-01-10T05:49:15.157Z,1.90
2019-01-10T05:51:42.724Z,1.53
2019-01-10T05:54:10.856Z,1.87
2019-01-10T05:56:38.448Z,2.83
2019-01-10T05:59:07.244Z,1.60
2019-01-10T06:01:35.020Z,2.23
2019-01-10T06:04:02.168Z,1.37
2019-01-10T06:06:30.107Z,1.47
2019-01-10T06:08:57.693Z,1.30
2019-01-10T06:11:26.760Z,1.37
2019-01-10T06:13:54.728Z,1.47
2019-01-10T06:16:22.450Z,1.97
2019-01-10T06:18:50.120Z,1.43
2019-01-10T06:21:18.101Z,1.73
2019-01-10T06:23:45.651Z,2.63
2019-01-10T06:26:13.664Z,2.00
2019-01-10T06:28:41.551Z,1.83
2019-01-10T06:31:11.179Z,1.80
2019-01-10T06:33:38.370Z,2.03
2019-01-10T06:36:05.500Z,2.37
2019-01-10T06:38:32.827Z,1.53
2019-01-10T06:41:00.532Z,2.20
2019-01-10T06:43:27.697Z,1.90
2019-01-10T06:45:55.256Z,2.60
2019-01-10T06:48:23.908Z,2.07
2019-01-10T06:50:51.652Z,1.90
2019-01-10T06:53:21.025Z,1.70
2019-01-10T06:55:49.316Z,2.23
2019-01-10T06:58:16.367Z,2.20
2019-01-10T07:00:43.560Z,2.13
2019-01-10T07:03:11.088Z,2.10
2019-01-10T07:05:39.931Z,2.07
2019-01-10T07:08:07.739Z,1.70
2019-01-10T07:10:35.527Z,1.93
2019-01-10T07:13:03.092Z,2.20
2019-01-10T07:15:31.661Z,2.20
2019-01-10T07:17:59.697Z,1.93
2019-01-10T07:20:26.804Z,2.00
2019-01-10T07:22:54.536Z,1.90
2019-01-10T07:25:21.732Z,2.00
2019-01-10T07:27:49.374Z,2.03
2019-01-10T07:30:19.176Z,2.23
2019-01-10T07:32:46.640Z,2.13
2019-01-10T07:35:14.427Z,1.93
2019-01-10T07:37:47.899Z,2.03
2019-01-10T07:40:16.124Z,2.23
2019-01-10T07:42:44.351Z,2.00
2019-01-10T07:45:15.188Z,1.90
2019-01-10T07:47:46.904Z,1.80
2019-01-10T07:50:15.199Z,1.63
2019-01-10T07:52:42.900Z,2.07
2019-01-10T07:55:10.681Z,2.00
2019-01-10T07:57:38.480Z,1.90
2019-01-10T08:00:07.127Z,2.00
2019-01-10T08:02:34.168Z,2.17
2019-01-10T08:05:01.877Z,2.30
2019-01-10T08:07:29.559Z,1.80
2019-01-10T08:09:56.938Z,1.73
2019-01-10T08:12:24.168Z,2.20
2019-01-10T08:14:52.063Z,2.00
2019-01-10T08:17:19.218Z,2.00
2019-01-10T08:19:46.744Z,2.10
2019-01-10T08:22:27.540Z,2.43
2019-01-10T08:24:47.708Z,2.30
2019-01-10T08:27:14.899Z,2.07
2019-01-10T08:29:42.359Z,2.30
2019-01-10T08:32:09.215Z,2.30
2019-01-10T08:34:37.659Z,2.23
2019-01-10T08:37:06.956Z,2.57
2019-01-10T08:39:34.131Z,2.30
2019-01-10T08:42:01.793Z,2.47
2019-01-10T08:44:30.354Z,2.30
2019-01-10T08:46:58.392Z,2.20
2019-01-10T08:49:27.115Z,2.60
2019-01-10T08:51:55.239Z,2.27
2019-01-10T08:54:22.127Z,2.17
2019-01-10T08:56:49.299Z,2.30
2019-01-10T08:59:16.878Z,2.00
2019-01-10T09:01:43.883Z,2.57
2019-01-10T09:04:11.559Z,2.00
2019-01-10T09:06:38.912Z,2.50
2019-01-10T09:09:08.102Z,3.23
2019-01-10T09:11:35.636Z,2.13
2019-01-10T09:14:04.739Z,2.50
2019-01-10T09:16:32.686Z,2.97
2019-01-10T09:18:59.950Z,2.13
2019-01-10T09:21:27.612Z,2.20
2019-01-10T09:23:55.706Z,1.87
2019-01-10T09:26:23.676Z,2.47
2019-01-10T09:28:50.794Z,2.20
2019-01-10T09:31:19.135Z,2.47
2019-01-10T09:33:46.355Z,2.40
2019-01-10T09:36:13.872Z,2.47
2019-01-10T09:38:40.985Z,2.30
2019-01-10T09:41:08.434Z,2.27
2019-01-10T09:43:36.071Z,2.50
2019-01-10T09:46:03.806Z,2.70
2019-01-10T09:48:31.439Z,2.60
2019-01-10T09:51:00.297Z,2.40
2019-01-10T09:53:28.371Z,2.90
2019-01-10T09:55:56.683Z,3.17
2019-01-10T09:58:26.061Z,2.70
2019-01-10T10:00:54.227Z,2.70
2019-01-10T10:03:21.651Z,2.50
2019-01-10T10:05:49.948Z,2.90
2019-01-10T10:08:17.612Z,2.97
2019-01-10T10:10:44.712Z,5.67
2019-01-10T10:13:12.108Z,4.00
2019-01-10T10:15:39.848Z,2.67
2019-01-10T10:18:07.748Z,2.97
2019-01-10T10:20:36.027Z,2.13
2019-01-10T10:23:03.835Z,3.23
2019-01-10T10:25:30.859Z,2.17
2019-01-10T10:27:59.780Z,2.10
2019-01-10T10:30:27.207Z,2.50
2019-01-10T10:32:54.921Z,2.30
2019-01-10T10:35:22.968Z,2.33
2019-01-10T10:37:50.566Z,2.20
2019-01-10T10:40:20.385Z,2.47
2019-01-10T10:42:48.706Z,2.83
2019-01-10T10:45:17.509Z,2.60
2019-01-10T10:47:45.247Z,2.53
2019-01-10T10:50:21.507Z,3.00
2019-01-10T10:52:49.324Z,2.63
2019-01-10T10:55:17.601Z,2.93
2019-01-10T10:57:45.352Z,2.60
2019-01-10T11:00:16.609Z,2.40
2019-01-10T11:02:44.629Z,3.03
2019-01-10T11:05:11.746Z,3.07
2019-01-10T11:07:39.413Z,2.37
2019-01-10T11:10:10.625Z,3.30
2019-01-10T11:12:38.127Z,2.70
2019-01-10T11:15:08.000Z,2.70
2019-01-10T11:17:36.931Z,2.37
2019-01-10T11:20:06.023Z,2.27
2019-01-10T11:22:33.705Z,2.47
2019-01-10T11:25:01.167Z,3.40
2019-01-10T11:27:28.841Z,3.00
2019-01-10T11:29:56.165Z,2.63
2019-01-10T11:32:23.908Z,2.80
2019-01-10T11:34:51.461Z,2.90
2019-01-10T11:37:20.134Z,2.50
2019-01-10T11:39:47.301Z,2.80
2019-01-10T11:42:14.520Z,3.17
2019-01-10T11:44:42.234Z,3.10
2019-01-10T11:47:10.117Z,2.70
2019-01-10T11:49:39.359Z,3.07
2019-01-10T11:52:06.856Z,3.00
2019-01-10T11:54:33.947Z,2.90
2019-01-10T11:57:01.412Z,2.60
2019-01-10T11:59:29.814Z,2.30
2019-01-10T12:01:57.030Z,2.90
2019-01-10T12:04:24.719Z,3.17
2019-01-10T12:06:53.080Z,3.30
2019-01-10T12:09:20.009Z,3.17
2019-01-10T12:11:47.581Z,2.63
2019-01-10T12:14:15.878Z,2.73
2019-01-10T12:16:43.317Z,2.63
2019-01-10T12:19:10.827Z,2.40
2019-01-10T12:21:39.790Z,2.40
2019-01-10T12:24:06.947Z,2.53
2019-01-10T12:26:34.021Z,5.47
2019-01-10T12:29:01.897Z,2.10
2019-01-10T12:31:28.980Z,1.83
2019-01-10T12:33:57.623Z,2.33
2019-01-10T12:36:24.888Z,2.27
2019-01-10T12:38:52.089Z,1.90
2019-01-10T12:41:20.301Z,2.07
2019-01-10T12:43:48.611Z,2.00
2019-01-10T12:46:16.751Z,2.07
2019-01-10T12:48:45.445Z,2.10
2019-01-10T12:51:12.659Z,1.63
2019-01-10T12:53:40.255Z,2.63
2019-01-10T12:56:08.211Z,2.00
2019-01-10T12:58:36.164Z,2.17
2019-01-10T13:01:04.115Z,2.07
2019-01-10T13:03:31.967Z,1.63
2019-01-10T13:05:59.289Z,2.00
2019-01-10T13:08:28.347Z,2.80
2019-01-10T13:10:56.303Z,2.17
2019-01-10T13:13:24.088Z,1.77
2019-01-10T13:15:51.827Z,1.33
2019-01-10T13:18:19.531Z,1.70
2019-01-10T13:20:46.867Z,1.77
2019-01-10T13:23:13.927Z,2.13
2019-01-10T13:25:41.984Z,1.80
2019-01-10T13:28:09.431Z,1.40
2019-01-10T13:30:36.667Z,2.00
2019-01-10T13:33:04.487Z,1.63
2019-01-10T13:35:31.976Z,1.60
2019-01-10T13:37:59.944Z,2.57
2019-01-10T13:40:28.065Z,1.60
2019-01-10T13:42:55.540Z,1.53
2019-01-10T13:45:23.205Z,1.77
2019-01-10T13:47:50.640Z,1.50
2019-01-10T13:50:21.704Z,1.97
2019-01-10T13:52:49.266Z,2.27
2019-01-10T13:55:16.941Z,1.33
2019-01-10T13:57:44.574Z,2.00
2019-01-10T14:00:17.755Z,1.73
2019-01-10T14:02:45.631Z,2.40
2019-01-10T14:05:13.400Z,2.40
2019-01-10T14:07:40.739Z,2.10
2019-01-10T14:10:08.888Z,1.67
2019-01-10T14:12:37.466Z,1.83
2019-01-10T14:15:06.692Z,1.47
2019-01-10T14:20:03.255Z,1.97
2019-01-10T14:22:30.275Z,5.80
2019-01-10T14:24:58.839Z,2.73
2019-01-10T14:27:26.356Z,1.67
2019-01-10T14:29:53.871Z,2.00
2019-01-10T14:32:21.156Z,1.77
2019-01-10T14:34:49.331Z,1.73
2019-01-10T14:37:16.536Z,1.77
2019-01-10T14:39:43.960Z,1.93
2019-01-10T14:42:11.512Z,1.90
2019-01-10T14:44:39.267Z,1.73
2019-01-10T14:47:07.744Z,1.60
2019-01-10T14:49:35.388Z,1.60
2019-01-10T14:52:03.106Z,2.10
2019-01-10T14:54:30.391Z,1.80
2019-01-10T14:56:58.221Z,1.50
2019-01-10T14:59:26.722Z,1.70
2019-01-10T15:01:53.878Z,2.17
2019-01-10T15:04:21.335Z,1.80
2019-01-10T15:06:48.839Z,1.80
2019-01-10T15:09:15.879Z,2.10
2019-01-10T15:11:42.979Z,1.90
2019-01-10T15:14:16.074Z,1.50
2019-01-10T15:16:40.000Z,1.70
2019-01-10T15:19:07.639Z,1.87
2019-01-10T15:21:35.706Z,5.00
2019-01-10T15:24:03.571Z,4.60
2019-01-10T15:26:30.840Z,2.23
2019-01-10T15:28:58.568Z,1.90
2019-01-10T15:31:25.652Z,1.70
2019-01-10T15:33:52.751Z,1.53
2019-01-10T15:36:20.717Z,1.80
2019-01-10T15:38:47.923Z,2.10
2019-01-10T15:41:15.055Z,1.90
2019-01-10T15:43:43.279Z,1.97
2019-01-10T15:46:11.997Z,2.00
2019-01-10T15:48:39.171Z,1.53
2019-01-10T15:51:07.022Z,1.87
2019-01-10T15:53:34.663Z,2.20
2019-01-10T15:56:02.099Z,2.13
2019-01-10T15:58:29.007Z,1.90
2019-01-10T16:00:56.117Z,2.17
2019-01-10T16:03:23.103Z,2.07
2019-01-10T16:05:50.201Z,2.00
2019-01-10T16:08:17.746Z,1.63
2019-01-10T16:10:44.939Z,1.90
2019-01-10T16:13:11.920Z,2.20
2019-01-10T16:15:38.953Z,1.87
2019-01-10T16:18:06.200Z,1.90
2019-01-10T16:20:33.211Z,1.20
2019-01-10T16:23:02.221Z,2.07
2019-01-10T16:25:29.348Z,2.10
2019-01-10T16:27:56.413Z,3.70
2019-01-10T16:30:27.290Z,5.20
2019-01-10T16:32:55.483Z,4.13
2019-01-10T16:35:23.444Z,2.40
2019-01-10T16:37:51.416Z,2.00
2019-01-10T16:40:18.475Z,2.00
2019-01-10T16:42:45.820Z,1.80
2019-01-10T16:45:18.700Z,1.80
2019-01-10T16:47:47.570Z,2.23
2019-01-10T16:50:16.137Z,2.17
2019-01-10T16:52:44.475Z,2.23
2019-01-10T16:55:11.742Z,2.03
2019-01-10T16:57:40.983Z,1.97
2019-01-10T17:00:21.064Z,2.23
2019-01-10T17:02:48.687Z,2.00
2019-01-10T17:05:15.813Z,2.17
2019-01-10T17:07:43.838Z,2.43
2019-01-10T17:10:11.261Z,2.87
2019-01-10T17:12:38.871Z,3.30
2019-01-10T17:15:07.637Z,3.80
2019-01-10T17:17:37.757Z,4.03
2019-01-10T17:20:07.999Z,6.43
2019-01-10T17:22:35.035Z,3.93
2019-01-10T17:25:03.231Z,3.60
2019-01-10T17:27:30.644Z,2.60
2019-01-10T17:29:57.671Z,2.60
2019-01-10T17:32:24.784Z,3.20
2019-01-10T17:34:52.631Z,3.77
2019-01-10T17:37:19.631Z,3.97
2019-01-10T17:39:47.251Z,3.60
2019-01-10T17:42:15.044Z,2.87
2019-01-10T17:44:42.600Z,4.03
2019-01-10T17:47:10.262Z,3.40
2019-01-10T17:49:38.188Z,5.23
2019-01-10T17:52:06.859Z,3.07
2019-01-10T17:54:35.516Z,3.27
2019-01-10T17:57:02.634Z,4.80
2019-01-10T17:59:29.878Z,4.50
2019-01-10T18:01:57.000Z,3.93
2019-01-10T18:04:25.126Z,3.63
2019-01-10T18:06:52.413Z,4.03
2019-01-10T18:09:20.539Z,3.37
2019-01-10T18:11:49.410Z,3.47
2019-01-10T18:14:17.443Z,3.33
2019-01-10T18:16:44.583Z,3.50
2019-01-10T18:19:13.080Z,2.47
2019-01-10T18:21:50.984Z,2.63
2019-01-10T18:24:21.123Z,2.57
2019-01-10T18:26:48.320Z,2.67
2019-01-10T18:29:15.748Z,2.53
2019-01-10T18:31:42.839Z,3.03
2019-01-10T18:34:10.268Z,2.70
2019-01-10T18:36:37.368Z,2.77
2019-01-10T18:39:08.031Z,2.90
2019-01-10T18:41:37.306Z,3.53
2019-01-10T18:44:04.999Z,3.30
2019-01-10T18:46:32.443Z,3.40
2019-01-10T18:48:59.864Z,5.73
2019-01-10T18:51:27.091Z,12.00
2019-01-10T18:53:56.292Z,5.10
2019-01-10T18:56:24.079Z,4.23
2019-01-10T18:58:54.633Z,3.97
2019-01-10T19:01:24.064Z,3.50
2019-01-10T19:03:53.746Z,3.70
2019-01-10T19:06:21.248Z,3.50
2019-01-10T19:08:48.807Z,3.60
2019-01-10T19:11:16.847Z,5.43
2019-01-10T19:13:44.047Z,4.33
2019-01-10T19:16:12.196Z,5.03
2019-01-10T19:18:39.631Z,4.50
2019-01-10T19:21:07.049Z,3.80
2019-01-10T19:23:34.734Z,3.87
2019-01-10T19:26:02.463Z,4.13
2019-01-10T19:28:30.847Z,4.10
2019-01-10T19:31:00.152Z,4.03
2019-01-10T19:33:27.279Z,4.50
2019-01-10T19:35:55.795Z,4.83
2019-01-10T19:38:27.337Z,3.50
2019-01-10T19:40:57.145Z,4.27
2019-01-10T19:43:25.435Z,4.30
2019-01-10T19:45:52.708Z,3.80
2019-01-10T19:48:21.315Z,3.10
2019-01-10T19:50:49.332Z,2.70
2019-01-10T19:53:16.864Z,2.23
2019-01-10T19:55:47.244Z,1.83
2019-01-10T19:58:16.661Z,1.77
2019-01-10T20:00:48.944Z,1.60
2019-01-10T20:03:16.844Z,4.40
2019-01-10T20:05:44.261Z,4.37
2019-01-10T20:08:11.366Z,1.97
2019-01-10T20:10:40.785Z,1.97
2019-01-10T20:13:08.588Z,2.17
2019-01-10T20:15:36.047Z,3.40
2019-01-10T20:18:03.983Z,5.37
2019-01-10T20:20:33.547Z,1.83
2019-01-10T20:23:00.917Z,2.07
2019-01-10T20:25:30.518Z,2.10
2019-01-10T20:27:59.461Z,2.20
2019-01-10T20:30:29.144Z,2.53
2019-01-10T20:32:58.612Z,2.97
2019-01-10T20:35:28.395Z,2.67
2019-01-10T20:37:56.928Z,2.87
2019-01-10T20:40:26.600Z,2.33
2019-01-10T20:42:56.841Z,1.50
2019-01-10T20:45:27.150Z,2.17
2019-01-10T20:47:54.640Z,2.10
2019-01-10T20:50:22.268Z,2.50
2019-01-10T20:52:49.889Z,2.33
2019-01-10T20:55:18.670Z,2.00
2019-01-10T20:57:47.507Z,2.17
2019-01-10T21:00:17.267Z,4.00
2019-01-10T21:02:47.290Z,4.13
2019-01-10T21:05:16.224Z,3.90
2019-01-10T21:07:46.408Z,2.50
2019-01-10T21:10:14.859Z,2.33
2019-01-10T21:12:44.332Z,2.67
2019-01-10T21:15:14.791Z,2.33
2019-01-10T21:17:43.881Z,1.97
2019-01-10T21:20:11.884Z,2.00
2019-01-10T21:22:40.379Z,1.97
2019-01-10T21:25:08.868Z,2.00
2019-01-10T21:27:36.527Z,2.60
2019-01-10T21:30:06.627Z,2.00
2019-01-10T21:32:34.276Z,2.13
2019-01-10T21:35:03.855Z,1.83
2019-01-10T21:37:31.311Z,1.77
2019-01-10T21:39:58.997Z,1.60
2019-01-10T21:42:26.312Z,1.50
2019-01-10T21:44:53.576Z,1.60
2019-01-10T21:47:21.083Z,1.33
2019-01-10T21:49:48.495Z,1.40
2019-01-10T21:52:16.328Z,1.60
2019-01-10T21:54:44.789Z,1.43
2019-01-10T21:57:12.343Z,1.60
2019-01-10T21:59:39.867Z,1.70
2019-01-10T22:02:07.408Z,1.50
2019-01-10T22:04:34.405Z,2.30
2019-01-10T22:07:01.804Z,2.30
2019-01-10T22:09:28.868Z,6.90
2019-01-10T22:11:56.521Z,5.60
2019-01-10T22:14:24.316Z,15.23
2019-01-10T22:16:51.928Z,9.23
2019-01-10T22:19:19.200Z,4.37
2019-01-10T22:21:47.656Z,3.80
2019-01-10T22:24:15.595Z,4.00
2019-01-10T22:26:42.802Z,5.60
2019-01-10T22:29:10.242Z,5.97
2019-01-10T22:31:37.508Z,5.97
2019-01-10T22:34:04.636Z,4.70
2019-01-10T22:36:33.047Z,2.80
2019-01-10T22:39:02.772Z,2.10
2019-01-10T22:41:30.456Z,2.70
2019-01-10T22:43:57.588Z,2.03
2019-01-10T22:46:24.939Z,2.30
2019-01-10T22:48:53.616Z,2.20
2019-01-10T22:51:20.964Z,2.20
2019-01-10T22:53:49.583Z,2.03
2019-01-10T22:56:17.176Z,3.67
2019-01-10T22:58:44.954Z,2.80
2019-01-10T23:01:31.740Z,2.70
2019-01-10T23:03:59.587Z,3.07
2019-01-10T23:06:27.064Z,3.17
2019-01-10T23:08:54.681Z,2.80
2019-01-10T23:11:23.091Z,3.03
2019-01-10T23:14:00.800Z,3.07
2019-01-10T23:16:29.263Z,3.30
2019-01-10T23:18:56.377Z,3.30
2019-01-10T23:21:23.875Z,3.70
2019-01-10T23:24:02.323Z,3.50
2019-01-10T23:26:30.443Z,3.40
2019-01-10T23:28:57.716Z,3.00
2019-01-10T23:31:25.617Z,2.97
2019-01-10T23:33:53.739Z,3.00
2019-01-10T23:36:21.419Z,3.27
2019-01-10T23:39:10.647Z,3.00
2019-01-10T23:41:38.320Z,2.50
2019-01-10T23:44:05.987Z,2.50
2019-01-10T23:46:33.461Z,2.37
2019-01-10T23:49:01.740Z,3.23
2019-01-10T23:51:29.684Z,4.50
2019-01-10T23:53:57.317Z,7.23
2019-01-10T23:56:25.649Z,7.77
2019-01-10T23:58:53.105Z,6.77
